This is the latest recevied weather packets stored in our database for station/object DG1JLA-3. If no packets are shown the sender has not sent any weather packets the latest 1 day(s).
| Time | Temp. | Humidity | Pressure | Rain* | Wind** | Luminosity | Snow |
|---|---|---|---|---|---|---|---|
| 1836274801 | 12.78° C | 88% | 1022.9 hPa | 0 mm | 0 m/s | - | - |
| 1836274501 | 12.78° C | 87% | 1022.9 hPa | 0 mm | 0 m/s | - | - |
| 1836274351 | 12.78° C | 87% | 1022.8 hPa | 0 mm | 0 m/s | - | - |
| 1836274201 | 12.78° C | 87% | 1022.9 hPa | 0 mm | 0 m/s | - | - |
| 1836273901 | 12.78° C | 87% | 1023 hPa | 0 mm | 0 m/s | - | - |
| 1778013289 | 12.22° C | 93% | 1009.3 hPa | 7.37 mm | 1.79 m/s, 224° | - | - |
| 1778012989 | 12.22° C | 93% | 1009.3 hPa | 6.1 mm | 1.34 m/s, 253° | - | - |
| 1778012689 | 12.78° C | 93% | 1009.2 hPa | 5.08 mm | 1.34 m/s, 176° | - | - |
| 1778012389 | 12.78° C | 93% | 1009.3 hPa | 3.56 mm | 1.34 m/s, 282° | - | - |
| 1778012089 | 13.33° C | 93% | 1009 hPa | 3.05 mm | 0.89 m/s, 214° | - | - |
| 1778011789 | 12.78° C | 93% | 1008.4 hPa | 2.54 mm | 1.34 m/s, 70° | - | - |
| 1778011489 | 12.78° C | 93% | 1007.6 hPa | 2.54 mm | 1.79 m/s, 34° | - | - |
| 1778011190 | 12.78° C | 93% | 1007.6 hPa | 2.03 mm | 0.89 m/s, 22° | - | - |
| 1778010889 | 12.78° C | 93% | 1007.7 hPa | 1.78 mm | 0.45 m/s, 21° | - | - |
| 1778010590 | 12.78° C | 93% | 1007.9 hPa | 1.02 mm | 0.45 m/s, 91° | - | - |
| 1778010290 | 12.78° C | 93% | 1007.9 hPa | 0.76 mm | 0.89 m/s, 107° | - | - |
| 1778010001 | 12.78° C | 93% | 1007.7 hPa | 1.02 mm | 1.34 m/s, 68° | - | - |
| 1778009690 | 12.78° C | 93% | 1007.7 hPa | 1.78 mm | 1.79 m/s, 51° | - | - |
| 1778009390 | 12.78° C | 92% | 1007.7 hPa | 2.29 mm | 2.24 m/s, 29° | - | - |
| 1778009090 | 12.78° C | 92% | 1007.5 hPa | 2.54 mm | 2.68 m/s, 9° | - | - |
| 1778008790 | 13.33° C | 92% | 1007.6 hPa | 3.05 mm | 2.24 m/s, 46° | - | - |
| 1778008490 | 13.33° C | 92% | 1007.7 hPa | 3.05 mm | 1.34 m/s, 71° | - | - |
| 1778008190 | 13.33° C | 92% | 1007.8 hPa | 3.05 mm | 1.34 m/s, 30° | - | - |
| 1778007890 | 13.33° C | 92% | 1007.8 hPa | 2.79 mm | 1.34 m/s, 29° | - | - |
| 1778007590 | 13.33° C | 92% | 1007.6 hPa | 2.79 mm | 1.34 m/s, 20° | - | - |
* Rain latest hour (hover to see other rain measurements)
** Current wind speed in m/s (hover to see current wind gust speed)